Time;durP1;ratioP1;P1;durP2;ratioP2;P2;SDS_P1;SDS_P2;PMS_P1;PMS_P2;Temp;Humidity;BMP_temperature;BMP_pressure;BME280_temperature;BME280_humidity;BME280_pressure;Samples;Min_cycle;Max_cycle;Signal;HPM_P1;HPM_P2
2021/08/05 00:02:13;;;;;;;57.87;54.90;;;;;;;;;;5066713;28;20457;-65
2021/08/05 00:04:41;;;;;;;58.73;55.93;;;;;;;;;;5067397;28;20482;-65
2021/08/05 00:07:09;;;;;;;54.17;51.37;;;;;;;;;;5056328;28;20489;-67
2021/08/05 00:09:38;;;;;;;56.67;53.97;;;;;;;;;;5056488;28;20464;-68
2021/08/05 00:12:06;;;;;;;53.50;50.90;;;;;;;;;;5062218;28;21485;-67
2021/08/05 00:14:33;;;;;;;55.57;52.97;;;;;;;;;;5063652;28;20466;-67
2021/08/05 00:17:00;;;;;;;53.63;51.13;;;;;;;;;;5067475;28;20466;-67
2021/08/05 00:19:27;;;;;;;53.40;50.90;;;;;;;;;;5056137;28;20545;-67
2021/08/05 00:21:55;;;;;;;51.77;49.27;;;;;;;;;;5051892;28;21017;-67
2021/08/05 00:24:23;;;;;;;53.37;50.67;;;;;;;;;;5052337;28;20473;-70
2021/08/05 00:26:50;;;;;;;50.17;47.80;;;;;;;;;;5051596;28;20488;-68
2021/08/05 00:29:17;;;;;;;51.17;48.77;;;;;;;;;;5052190;28;20942;-67
2021/08/05 00:31:44;;;;;;;51.20;48.80;;;;;;;;;;5059906;28;20497;-68
2021/08/05 00:34:11;;;;;;;53.07;50.47;;;;;;;;;;5064549;28;20459;-67
2021/08/05 00:36:39;;;;;;;51.27;48.47;;;;;;;;;;5060005;28;20856;-68
2021/08/05 00:39:06;;;;;;;51.47;49.07;;;;;;;;;;5070465;28;20467;-68
2021/08/05 00:41:34;;;;;;;52.30;49.80;;;;;;;;;;5062482;28;20482;-68
2021/08/05 00:44:02;;;;;;;52.30;49.80;;;;;;;;;;5072594;28;20446;-68
2021/08/05 00:46:30;;;;;;;51.77;49.37;;;;;;;;;;5071145;28;20573;-67
2021/08/05 00:48:57;;;;;;;50.77;48.33;;;;;;;;;;5071859;28;20467;-69
2021/08/05 00:51:24;;;;;;;49.80;47.40;;;;;;;;;;5052709;28;20487;-67
2021/08/05 00:53:51;;;;;;;51.30;48.80;;;;;;;;;;5052857;28;20475;-69
2021/08/05 00:56:18;;;;;;;52.73;50.20;;;;;;;;;;5052298;28;20486;-69
2021/08/05 00:58:46;;;;;;;51.53;48.83;;;;;;;;;;5053861;28;20443;-68
2021/08/05 01:01:16;;;;;;;50.70;48.30;;;;;;;;;;5059776;28;20860;-68
2021/08/05 01:03:45;;;;;;;51.00;48.43;;;;;;;;;;5070092;28;20471;-68
2021/08/05 01:06:18;;;;;;;49.30;47.00;;;;;;;;;;5052993;28;20951;-67
2021/08/05 01:08:48;;;;;;;48.97;46.37;;;;;;;;;;5060175;28;20499;-67
2021/08/05 01:11:17;;;;;;;49.20;46.80;;;;;;;;;;5071673;28;20477;-69
2021/08/05 01:13:49;;;;;;;49.90;47.50;;;;;;;;;;5070328;28;20474;-69
2021/08/05 01:16:18;;;;;;;49.23;46.80;;;;;;;;;;5068414;28;20469;-69
2021/08/05 01:18:47;;;;;;;51.30;48.90;;;;;;;;;;5058286;28;20450;-68
2021/08/05 01:21:17;;;;;;;51.13;48.70;;;;;;;;;;5068261;28;20839;-67
2021/08/05 01:23:46;;;;;;;50.03;47.73;;;;;;;;;;5052030;28;20451;-67
2021/08/05 01:26:16;;;;;;;49.47;47.07;;;;;;;;;;5051675;28;20447;-67
2021/08/05 01:28:45;;;;;;;49.03;46.73;;;;;;;;;;5066995;28;20466;-68
2021/08/05 01:31:13;;;;;;;48.97;46.67;;;;;;;;;;5067618;28;21562;-70
2021/08/05 01:33:41;;;;;;;47.23;44.83;;;;;;;;;;5057726;28;20468;-67
2021/08/05 01:36:08;;;;;;;46.10;43.80;;;;;;;;;;5063392;28;20463;-68
2021/08/05 01:38:36;;;;;;;47.30;45.10;;;;;;;;;;5060679;28;20951;-68
2021/08/05 01:41:03;;;;;;;48.13;45.80;;;;;;;;;;5054849;28;20838;-68
2021/08/05 01:43:31;;;;;;;47.60;45.30;;;;;;;;;;5053764;28;20943;-67
2021/08/05 01:46:00;;;;;;;46.37;43.97;;;;;;;;;;5064237;28;20463;-69
2021/08/05 01:48:27;;;;;;;47.27;45.07;;;;;;;;;;5055154;28;20487;-70
2021/08/05 01:50:55;;;;;;;46.90;44.60;;;;;;;;;;5063348;28;21005;-69
2021/08/05 01:53:22;;;;;;;45.37;43.07;;;;;;;;;;5070427;28;20446;-67
2021/08/05 01:55:49;;;;;;;46.90;44.30;;;;;;;;;;5052076;28;22166;-67
2021/08/05 01:58:16;;;;;;;46.37;43.77;;;;;;;;;;5065920;28;20448;-67
2021/08/05 02:00:43;;;;;;;47.13;44.70;;;;;;;;;;5050601;28;21397;-67
2021/08/05 02:03:13;;;;;;;48.13;45.33;;;;;;;;;;5068776;28;20459;-68
2021/08/05 02:05:43;;;;;;;44.90;42.70;;;;;;;;;;5058293;28;21619;-67
2021/08/05 02:08:11;;;;;;;44.40;42.10;;;;;;;;;;5063426;28;20479;-67
2021/08/05 02:10:41;;;;;;;44.57;42.37;;;;;;;;;;5069078;28;20505;-67
2021/08/05 02:13:12;;;;;;;46.07;43.57;;;;;;;;;;5071492;28;20473;-67
2021/08/05 02:15:40;;;;;;;44.60;42.37;;;;;;;;;;5068598;28;20831;-69
2021/08/05 02:18:08;;;;;;;44.60;42.20;;;;;;;;;;5050951;28;20443;-67
2021/08/05 02:20:36;;;;;;;44.23;41.90;;;;;;;;;;5049927;28;20487;-67
2021/08/05 02:23:03;;;;;;;43.40;41.20;;;;;;;;;;5054473;28;20821;-67
2021/08/05 02:25:31;;;;;;;43.70;41.10;;;;;;;;;;5054758;28;20455;-67
2021/08/05 02:27:58;;;;;;;42.03;39.93;;;;;;;;;;5070341;28;20482;-67
2021/08/05 02:30:27;;;;;;;42.83;40.63;;;;;;;;;;5054511;28;20831;-67
2021/08/05 02:32:54;;;;;;;40.47;38.30;;;;;;;;;;5053583;28;20451;-67
2021/08/05 02:35:22;;;;;;;40.30;37.83;;;;;;;;;;5054742;28;20467;-68
2021/08/05 02:37:51;;;;;;;42.77;40.40;;;;;;;;;;5057700;28;20463;-68
2021/08/05 02:40:18;;;;;;;44.00;41.70;;;;;;;;;;5073890;28;20466;-67
2021/08/05 02:42:46;;;;;;;42.83;40.53;;;;;;;;;;5063648;28;20463;-67
2021/08/05 02:45:13;;;;;;;41.03;38.80;;;;;;;;;;5054701;28;20456;-67
2021/08/05 02:47:40;;;;;;;40.27;37.90;;;;;;;;;;5066915;28;20485;-67
2021/08/05 02:50:08;;;;;;;41.20;39.00;;;;;;;;;;5065949;28;20483;-69
2021/08/05 02:52:36;;;;;;;41.93;39.73;;;;;;;;;;5054232;28;20829;-68
2021/08/05 02:55:06;;;;;;;42.07;39.67;;;;;;;;;;5055916;28;20458;-67
2021/08/05 02:57:33;;;;;;;41.63;39.43;;;;;;;;;;5059442;28;20456;-67
2021/08/05 03:00:00;;;;;;;39.50;37.40;;;;;;;;;;5070185;28;21039;-68
2021/08/05 03:02:27;;;;;;;39.60;37.50;;;;;;;;;;5059534;28;20782;-67
2021/08/05 03:04:54;;;;;;;38.03;35.97;;;;;;;;;;5069051;28;20471;-68
2021/08/05 03:07:21;;;;;;;37.20;35.20;;;;;;;;;;5060054;28;20479;-67
2021/08/05 03:09:48;;;;;;;39.23;37.13;;;;;;;;;;5062230;28;20469;-68
2021/08/05 03:12:17;;;;;;;38.53;36.53;;;;;;;;;;5069643;28;21076;-67
2021/08/05 03:14:44;;;;;;;38.10;36.10;;;;;;;;;;5070725;28;20476;-67
2021/08/05 03:17:12;;;;;;;36.73;34.73;;;;;;;;;;5070590;28;20465;-67
2021/08/05 03:19:39;;;;;;;36.37;34.47;;;;;;;;;;5071659;28;20478;-65
2021/08/05 03:22:06;;;;;;;36.90;35.00;;;;;;;;;;5072975;28;20471;-66
2021/08/05 03:24:33;;;;;;;35.27;33.33;;;;;;;;;;5071619;28;20463;-65
2021/08/05 03:27:01;;;;;;;36.17;33.80;;;;;;;;;;5064770;28;20514;-66
2021/08/05 03:29:29;;;;;;;35.33;33.33;;;;;;;;;;5058874;28;21005;-66
2021/08/05 03:31:56;;;;;;;34.37;32.37;;;;;;;;;;5074616;28;20851;-65
2021/08/05 03:34:23;;;;;;;33.50;31.70;;;;;;;;;;5068571;28;20451;-66
2021/08/05 03:36:50;;;;;;;32.17;30.37;;;;;;;;;;5070276;28;20454;-65
2021/08/05 03:39:17;;;;;;;32.50;30.70;;;;;;;;;;5061513;28;20465;-65
2021/08/05 03:41:45;;;;;;;33.03;31.10;;;;;;;;;;5054972;28;21005;-64
2021/08/05 03:44:12;;;;;;;31.53;29.63;;;;;;;;;;5055392;28;20468;-64
2021/08/05 03:46:40;;;;;;;32.17;30.43;;;;;;;;;;5061339;28;20471;-66
2021/08/05 03:49:08;;;;;;;32.80;31.00;;;;;;;;;;5074324;28;20483;-64
2021/08/05 03:51:35;;;;;;;31.10;29.50;;;;;;;;;;5066349;28;20480;-64
2021/08/05 03:54:02;;;;;;;31.50;29.67;;;;;;;;;;5062078;28;20826;-65
2021/08/05 03:56:29;;;;;;;30.40;28.60;;;;;;;;;;5052619;28;20468;-66
2021/08/05 03:58:56;;;;;;;29.50;27.80;;;;;;;;;;5068629;28;20459;-64
2021/08/05 04:01:23;;;;;;;29.70;28.10;;;;;;;;;;5063576;28;20483;-66
2021/08/05 04:03:52;;;;;;;30.27;28.50;;;;;;;;;;5062180;28;20870;-64
2021/08/05 04:06:19;;;;;;;30.63;28.63;;;;;;;;;;5068970;28;20467;-64
2021/08/05 04:08:46;;;;;;;29.20;27.50;;;;;;;;;;5057588;28;20485;-65
2021/08/05 04:11:13;;;;;;;29.70;28.00;;;;;;;;;;5073048;28;20466;-64
2021/08/05 04:13:40;;;;;;;28.50;26.70;;;;;;;;;;5069836;28;20478;-64
2021/08/05 04:16:08;;;;;;;28.23;26.63;;;;;;;;;;5061109;28;20448;-67
2021/08/05 04:18:36;;;;;;;30.10;28.30;;;;;;;;;;5063640;28;20455;-66
2021/08/05 04:21:04;;;;;;;28.67;27.00;;;;;;;;;;5066642;28;20474;-66
2021/08/05 04:23:31;;;;;;;29.50;27.90;;;;;;;;;;5072525;28;20473;-66
2021/08/05 04:25:58;;;;;;;28.70;26.80;;;;;;;;;;5072511;28;20454;-67
2021/08/05 04:28:25;;;;;;;28.30;26.70;;;;;;;;;;5066472;28;20481;-67
2021/08/05 04:30:53;;;;;;;28.03;26.43;;;;;;;;;;5073309;28;20820;-71
2021/08/05 04:33:21;;;;;;;27.10;25.60;;;;;;;;;;5071250;28;20458;-71
2021/08/05 04:35:48;;;;;;;27.20;25.70;;;;;;;;;;5056600;28;20962;-67
2021/08/05 04:38:16;;;;;;;27.30;25.80;;;;;;;;;;5068489;28;20461;-68
2021/08/05 04:40:43;;;;;;;27.40;25.70;;;;;;;;;;5054285;28;20850;-68
2021/08/05 04:43:10;;;;;;;28.00;26.30;;;;;;;;;;5055577;28;20471;-68
2021/08/05 04:45:37;;;;;;;28.40;26.37;;;;;;;;;;5074504;28;20819;-66
2021/08/05 04:48:05;;;;;;;27.00;25.60;;;;;;;;;;5072144;28;20483;-69
2021/08/05 04:50:34;;;;;;;28.30;26.40;;;;;;;;;;5061297;28;20483;-67
2021/08/05 04:53:02;;;;;;;26.70;25.30;;;;;;;;;;5054183;28;20841;-67
2021/08/05 04:55:31;;;;;;;27.80;26.00;;;;;;;;;;5072794;28;20473;-67
2021/08/05 04:57:58;;;;;;;26.00;24.50;;;;;;;;;;5060447;28;22119;-68
2021/08/05 05:00:26;;;;;;;28.03;26.10;;;;;;;;;;5071094;28;20476;-67
2021/08/05 05:02:53;;;;;;;26.70;25.10;;;;;;;;;;5068250;28;20458;-68
2021/08/05 05:05:21;;;;;;;27.70;26.10;;;;;;;;;;5068246;28;20454;-67
2021/08/05 05:07:48;;;;;;;27.30;25.50;;;;;;;;;;5058237;28;20487;-67
2021/08/05 05:10:15;;;;;;;27.47;25.87;;;;;;;;;;5063478;28;20478;-69
2021/08/05 05:12:44;;;;;;;26.83;25.03;;;;;;;;;;5057207;28;20468;-67
2021/08/05 05:15:12;;;;;;;39.73;37.63;;;;;;;;;;5053731;28;21125;-68
2021/08/05 05:17:39;;;;;;;26.60;25.10;;;;;;;;;;5060218;28;20471;-68
2021/08/05 05:20:07;;;;;;;28.00;26.20;;;;;;;;;;5067761;28;20865;-67
2021/08/05 05:22:35;;;;;;;27.50;25.90;;;;;;;;;;5057079;28;20448;-67
2021/08/05 05:25:02;;;;;;;26.83;25.37;;;;;;;;;;5058449;28;20545;-67
2021/08/05 05:27:29;;;;;;;27.67;25.87;;;;;;;;;;5068059;28;20837;-68
2021/08/05 05:30:00;;;;;;;27.77;26.00;;;;;;;;;;5058552;28;20495;-67
2021/08/05 05:32:28;;;;;;;26.77;25.10;;;;;;;;;;5073955;28;20475;-68
2021/08/05 05:34:55;;;;;;;27.27;25.70;;;;;;;;;;5066248;28;20470;-69
2021/08/05 05:37:22;;;;;;;27.70;25.97;;;;;;;;;;5071079;28;20462;-67
2021/08/05 05:39:50;;;;;;;28.30;26.70;;;;;;;;;;5060422;28;20554;-63
2021/08/05 05:42:17;;;;;;;26.63;25.10;;;;;;;;;;5054289;28;20436;-67
2021/08/05 05:44:44;;;;;;;28.10;26.40;;;;;;;;;;5056058;28;20970;-66
2021/08/05 05:47:12;;;;;;;27.40;25.63;;;;;;;;;;5056819;28;20464;-67
2021/08/05 05:49:40;;;;;;;27.33;25.63;;;;;;;;;;5061403;28;20497;-66
2021/08/05 05:52:07;;;;;;;28.37;26.77;;;;;;;;;;5054425;28;20451;-66
2021/08/05 05:54:35;;;;;;;28.37;26.77;;;;;;;;;;5050571;28;20459;-68
2021/08/05 05:57:02;;;;;;;28.00;26.37;;;;;;;;;;5055158;28;20458;-66
2021/08/05 05:59:29;;;;;;;29.10;26.63;;;;;;;;;;5055028;28;20455;-69
2021/08/05 06:01:56;;;;;;;30.90;28.80;;;;;;;;;;5057229;28;20479;-66
2021/08/05 06:04:25;;;;;;;34.30;31.97;;;;;;;;;;5055447;28;20464;-69
2021/08/05 06:06:52;;;;;;;33.37;31.00;;;;;;;;;;5068602;28;20463;-69
2021/08/05 06:09:19;;;;;;;35.60;33.20;;;;;;;;;;5065631;28;20506;-70
2021/08/05 06:11:46;;;;;;;32.13;29.73;;;;;;;;;;5059804;28;20479;-70
2021/08/05 06:14:13;;;;;;;28.90;27.10;;;;;;;;;;5062144;28;20482;-70
2021/08/05 06:16:41;;;;;;;32.37;30.53;;;;;;;;;;5068929;28;20472;-69
2021/08/05 06:19:08;;;;;;;33.17;30.10;;;;;;;;;;5069222;28;20444;-69
2021/08/05 06:21:36;;;;;;;34.60;31.80;;;;;;;;;;5055612;28;21005;-69
2021/08/05 06:24:04;;;;;;;30.60;28.63;;;;;;;;;;5064947;28;20443;-69
2021/08/05 06:26:31;;;;;;;28.70;27.00;;;;;;;;;;5074515;28;20898;-67
2021/08/05 06:28:58;;;;;;;30.47;28.30;;;;;;;;;;5068084;28;20482;-68
2021/08/05 06:31:26;;;;;;;27.97;26.27;;;;;;;;;;5070028;28;20463;-69
2021/08/05 06:33:54;;;;;;;27.93;26.23;;;;;;;;;;5063013;28;20477;-67
2021/08/05 06:36:21;;;;;;;28.43;26.60;;;;;;;;;;5068233;28;20444;-67
2021/08/05 06:38:51;;;;;;;28.10;26.60;;;;;;;;;;5056399;28;20452;-67
2021/08/05 06:41:18;;;;;;;27.67;26.07;;;;;;;;;;5055460;28;20498;-67
2021/08/05 06:43:45;;;;;;;28.50;26.80;;;;;;;;;;5056832;28;20444;-71
2021/08/05 06:46:12;;;;;;;26.90;25.40;;;;;;;;;;5057436;28;21058;-68
2021/08/05 06:48:39;;;;;;;28.23;26.70;;;;;;;;;;5061995;28;20490;-70
2021/08/05 06:51:08;;;;;;;29.00;27.40;;;;;;;;;;5059651;28;21001;-67
2021/08/05 06:53:35;;;;;;;27.17;25.50;;;;;;;;;;5057253;28;20456;-70
2021/08/05 06:56:04;;;;;;;27.60;25.87;;;;;;;;;;5074099;28;20443;-70
2021/08/05 06:58:31;;;;;;;27.77;25.90;;;;;;;;;;5069711;28;20523;-69
2021/08/05 07:00:59;;;;;;;26.70;25.10;;;;;;;;;;5056556;28;20475;-68
2021/08/05 07:03:26;;;;;;;26.60;25.20;;;;;;;;;;5069615;28;20539;-67
2021/08/05 07:05:53;;;;;;;26.03;24.30;;;;;;;;;;5060171;28;20454;-65
2021/08/05 07:08:20;;;;;;;25.77;24.40;;;;;;;;;;5074459;28;20450;-66
2021/08/05 07:10:47;;;;;;;24.53;23.23;;;;;;;;;;5074445;28;20466;-65
2021/08/05 07:13:16;;;;;;;25.80;24.30;;;;;;;;;;5055004;28;20470;-66
2021/08/05 07:15:43;;;;;;;25.90;24.50;;;;;;;;;;5067872;28;20453;-66
2021/08/05 07:18:11;;;;;;;24.03;22.80;;;;;;;;;;5055749;28;20448;-66
2021/08/05 07:20:38;;;;;;;26.20;24.80;;;;;;;;;;5055196;28;21011;-67
2021/08/05 07:23:05;;;;;;;28.50;26.90;;;;;;;;;;5056176;28;20440;-65
2021/08/05 07:25:32;;;;;;;27.63;26.20;;;;;;;;;;5055304;28;20458;-65
2021/08/05 07:28:01;;;;;;;26.70;25.30;;;;;;;;;;5055724;28;20482;-65
2021/08/05 07:30:30;;;;;;;28.17;26.67;;;;;;;;;;5071267;28;20488;-66
2021/08/05 07:32:58;;;;;;;24.93;23.63;;;;;;;;;;5068056;28;20816;-66
2021/08/05 07:35:25;;;;;;;25.63;24.23;;;;;;;;;;5060519;28;20456;-68
2021/08/05 07:37:52;;;;;;;25.10;23.77;;;;;;;;;;5058988;28;20460;-68
2021/08/05 07:40:20;;;;;;;25.60;24.33;;;;;;;;;;5073016;28;20466;-68
2021/08/05 07:42:47;;;;;;;25.70;24.20;;;;;;;;;;5062108;28;20458;-68
2021/08/05 07:45:14;;;;;;;24.50;23.20;;;;;;;;;;5064961;28;20451;-68
2021/08/05 07:47:42;;;;;;;24.57;23.37;;;;;;;;;;5066305;28;20451;-69
2021/08/05 07:50:10;;;;;;;24.63;23.33;;;;;;;;;;5058062;28;20492;-69
2021/08/05 07:52:37;;;;;;;25.50;24.10;;;;;;;;;;5064501;28;20536;-70
2021/08/05 07:55:06;;;;;;;24.30;23.03;;;;;;;;;;5043897;22;21018;-62
2021/08/05 07:57:33;;;;;;;25.27;23.87;;;;;;;;;;5011981;28;21006;-62
2021/08/05 08:00:00;;;;;;;25.77;24.47;;;;;;;;;;5003290;28;20449;-62
2021/08/05 08:02:28;;;;;;;25.27;23.90;;;;;;;;;;5011632;28;20449;-62
2021/08/05 08:04:56;;;;;;;25.90;24.60;;;;;;;;;;5003135;28;20481;-62
2021/08/05 08:07:23;;;;;;;26.80;25.40;;;;;;;;;;5012163;28;20450;-62
2021/08/05 08:09:51;;;;;;;26.10;24.70;;;;;;;;;;5011781;28;20487;-62
2021/08/05 08:12:18;;;;;;;25.80;24.50;;;;;;;;;;5012600;28;20461;-62
2021/08/05 08:14:45;;;;;;;26.33;25.03;;;;;;;;;;5011563;28;21023;-62
2021/08/05 08:17:12;;;;;;;26.90;25.50;;;;;;;;;;5012395;28;20549;-62
2021/08/05 08:19:39;;;;;;;25.20;23.77;;;;;;;;;;5011535;28;20544;-62
2021/08/05 08:22:09;;;;;;;25.83;24.43;;;;;;;;;;5011148;28;20460;-62
2021/08/05 08:24:37;;;;;;;26.17;24.77;;;;;;;;;;4997566;28;20536;-62
2021/08/05 08:27:04;;;;;;;25.07;23.77;;;;;;;;;;5009919;28;20815;-62
2021/08/05 08:29:31;;;;;;;25.70;24.33;;;;;;;;;;5001420;28;20478;-62
2021/08/05 08:31:58;;;;;;;29.27;27.77;;;;;;;;;;4995186;28;20467;-63
2021/08/05 08:34:26;;;;;;;28.63;27.13;;;;;;;;;;5011522;28;20470;-62
2021/08/05 08:36:53;;;;;;;29.00;27.47;;;;;;;;;;5011898;28;20457;-62
2021/08/05 08:39:23;;;;;;;29.40;27.90;;;;;;;;;;5012217;28;20937;-62
2021/08/05 08:41:50;;;;;;;28.97;27.37;;;;;;;;;;5011775;28;20453;-62
2021/08/05 08:44:17;;;;;;;29.30;27.70;;;;;;;;;;5011713;28;20475;-62
2021/08/05 08:46:45;;;;;;;27.87;26.37;;;;;;;;;;5011066;28;20461;-62
2021/08/05 08:49:12;;;;;;;28.77;27.13;;;;;;;;;;4992286;28;20488;-62
2021/08/05 08:51:40;;;;;;;28.00;26.50;;;;;;;;;;4994598;28;20447;-62
2021/08/05 08:54:09;;;;;;;26.67;25.23;;;;;;;;;;5004512;28;20486;-62
2021/08/05 08:56:38;;;;;;;27.27;25.87;;;;;;;;;;4992678;28;20806;-62
2021/08/05 08:59:05;;;;;;;30.37;28.77;;;;;;;;;;4992360;28;20450;-64
2021/08/05 09:01:39;;;;;;;28.37;26.87;;;;;;;;;;5011981;28;20453;-64
2021/08/05 09:04:06;;;;;;;28.40;26.80;;;;;;;;;;5012258;28;20495;-62
2021/08/05 09:06:34;;;;;;;29.40;27.53;;;;;;;;;;5007066;28;20953;-61
2021/08/05 09:09:01;;;;;;;28.67;27.07;;;;;;;;;;5000207;28;20956;-61
2021/08/05 09:11:28;;;;;;;31.00;29.20;;;;;;;;;;4992350;28;20461;-61
2021/08/05 09:13:57;;;;;;;29.03;27.50;;;;;;;;;;5008961;28;20861;-61
2021/08/05 09:16:25;;;;;;;30.37;28.67;;;;;;;;;;5007739;28;20806;-61
2021/08/05 09:18:52;;;;;;;29.90;28.20;;;;;;;;;;5008875;28;20468;-61
2021/08/05 09:21:21;;;;;;;30.23;28.53;;;;;;;;;;5010642;28;20587;-61
2021/08/05 09:23:52;;;;;;;30.33;28.73;;;;;;;;;;5010514;28;20571;-61
2021/08/05 09:26:23;;;;;;;30.53;28.73;;;;;;;;;;5011867;28;20485;-61
2021/08/05 09:29:01;;;;;;;30.60;28.87;;;;;;;;;;5011894;28;20461;-61
2021/08/05 09:31:28;;;;;;;30.37;28.67;;;;;;;;;;5015108;28;20953;-61
2021/08/05 09:34:00;;;;;;;31.23;29.50;;;;;;;;;;5016039;28;20466;-61
2021/08/05 09:36:28;;;;;;;32.37;30.13;;;;;;;;;;5014945;28;20452;-61
2021/08/05 09:38:55;;;;;;;29.17;27.53;;;;;;;;;;5014716;28;20454;-61
2021/08/05 09:41:22;;;;;;;30.30;28.60;;;;;;;;;;5014613;28;20467;-61
2021/08/05 09:43:50;;;;;;;31.07;29.37;;;;;;;;;;5015618;28;20476;-61
2021/08/05 09:46:31;;;;;;;30.03;28.33;;;;;;;;;;5015341;28;20457;-62
2021/08/05 09:48:58;;;;;;;29.77;28.17;;;;;;;;;;5015697;28;20884;-62
2021/08/05 09:51:25;;;;;;;29.20;27.60;;;;;;;;;;5015104;28;20460;-61
2021/08/05 09:53:53;;;;;;;28.37;26.87;;;;;;;;;;5014742;28;20481;-61
2021/08/05 09:56:21;;;;;;;28.63;27.13;;;;;;;;;;5013822;28;20442;-61
2021/08/05 09:58:48;;;;;;;27.20;25.70;;;;;;;;;;4997811;28;20468;-61
2021/08/05 10:01:16;;;;;;;25.87;24.57;;;;;;;;;;4995866;28;20496;-60
2021/08/05 10:03:44;;;;;;;28.30;26.90;;;;;;;;;;5007882;28;20481;-60
2021/08/05 10:06:11;;;;;;;26.43;24.93;;;;;;;;;;5014987;28;20457;-60
2021/08/05 10:08:39;;;;;;;26.83;25.47;;;;;;;;;;5014960;28;20454;-61
2021/08/05 10:11:07;;;;;;;26.33;24.90;;;;;;;;;;5015271;28;20876;-60
2021/08/05 10:13:35;;;;;;;25.83;24.33;;;;;;;;;;5014548;28;20453;-61
2021/08/05 10:16:03;;;;;;;26.57;25.03;;;;;;;;;;5015230;28;20842;-64
2021/08/05 10:18:30;;;;;;;23.67;22.27;;;;;;;;;;5014459;28;20647;-62
2021/08/05 10:21:00;;;;;;;22.00;20.80;;;;;;;;;;5014580;28;20453;-61
2021/08/05 10:23:28;;;;;;;24.30;22.90;;;;;;;;;;5008456;28;20501;-61
2021/08/05 10:25:57;;;;;;;22.67;21.37;;;;;;;;;;5014801;28;20457;-60
2021/08/05 10:28:24;;;;;;;21.93;20.83;;;;;;;;;;5007906;28;20458;-60
2021/08/05 10:30:52;;;;;;;22.53;21.33;;;;;;;;;;5004654;28;21012;-60
2021/08/05 10:33:20;;;;;;;22.00;20.90;;;;;;;;;;5015087;28;20453;-61
2021/08/05 10:35:48;;;;;;;23.40;22.20;;;;;;;;;;5006746;28;20987;-61
2021/08/05 10:38:17;;;;;;;21.63;20.43;;;;;;;;;;4995432;28;20544;-61
2021/08/05 10:40:45;;;;;;;23.40;22.10;;;;;;;;;;5008398;28;21198;-59
2021/08/05 10:43:13;;;;;;;23.57;22.27;;;;;;;;;;5012145;28;20463;-61
2021/08/05 10:45:40;;;;;;;23.63;22.33;;;;;;;;;;5012585;28;20569;-61
2021/08/05 10:48:08;;;;;;;23.40;22.20;;;;;;;;;;5002262;28;20482;-61
2021/08/05 10:50:40;;;;;;;23.50;22.10;;;;;;;;;;5006574;28;20485;-62
2021/08/05 10:53:09;;;;;;;24.10;22.87;;;;;;;;;;5009293;28;20468;-62
2021/08/05 10:55:39;;;;;;;23.23;21.83;;;;;;;;;;5015416;28;20482;-60
2021/08/05 10:58:14;;;;;;;22.47;21.37;;;;;;;;;;5017946;28;20449;-62
2021/08/05 11:00:53;;;;;;;22.50;21.40;;;;;;;;;;5019137;28;20460;-62
2021/08/05 11:03:40;;;;;;;23.70;22.40;;;;;;;;;;5017352;28;20536;-62
2021/08/05 11:06:08;;;;;;;23.43;22.03;;;;;;;;;;5023123;28;20450;-62
2021/08/05 11:08:35;;;;;;;23.77;22.67;;;;;;;;;;5009032;28;20492;-62
2021/08/05 11:11:21;;;;;;;23.47;22.27;;;;;;;;;;5020387;28;20554;-62
2021/08/05 11:14:15;;;;;;;23.90;22.67;;;;;;;;;;5020824;28;20480;-62
2021/08/05 11:17:02;;;;;;;23.80;22.60;;;;;;;;;;5022174;28;20464;-62
2021/08/05 11:19:30;;;;;;;23.20;22.00;;;;;;;;;;5016473;28;20446;-62
2021/08/05 11:21:58;;;;;;;24.40;23.10;;;;;;;;;;5018948;28;20456;-62
2021/08/05 11:24:43;;;;;;;22.50;21.40;;;;;;;;;;5016603;28;20465;-62
2021/08/05 11:27:11;;;;;;;22.80;21.50;;;;;;;;;;5025924;28;20447;-62
2021/08/05 11:29:39;;;;;;;23.20;21.80;;;;;;;;;;5017672;28;20537;-61
2021/08/05 11:32:21;;;;;;;24.20;22.40;;;;;;;;;;5004123;28;20451;-62
2021/08/05 11:34:54;;;;;;;23.47;21.90;;;;;;;;;;5020055;28;20541;-61
2021/08/05 11:37:22;;;;;;;23.53;22.10;;;;;;;;;;5022043;28;20457;-62
2021/08/05 11:39:53;;;;;;;24.30;22.67;;;;;;;;;;5023445;28;20481;-61
2021/08/05 11:42:20;;;;;;;24.30;22.80;;;;;;;;;;5020659;28;20533;-61
2021/08/05 11:44:52;;;;;;;25.13;23.10;;;;;;;;;;5023231;28;20469;-63
2021/08/05 11:47:19;;;;;;;25.27;23.47;;;;;;;;;;5023175;28;20446;-62
2021/08/05 11:49:47;;;;;;;25.00;23.13;;;;;;;;;;5024061;28;20540;-63
2021/08/05 11:52:15;;;;;;;26.33;24.23;;;;;;;;;;5021714;28;20456;-61
2021/08/05 11:54:44;;;;;;;24.00;22.50;;;;;;;;;;5021322;28;20473;-60
2021/08/05 11:57:12;;;;;;;23.17;21.97;;;;;;;;;;5021600;28;20853;-62
2021/08/05 11:59:40;;;;;;;25.40;23.50;;;;;;;;;;5020695;28;20454;-62
2021/08/05 12:02:09;;;;;;;28.07;26.43;;;;;;;;;;5019074;28;20968;-62
2021/08/05 12:04:37;;;;;;;24.47;23.17;;;;;;;;;;5020538;28;20469;-63
2021/08/05 12:07:17;;;;;;;22.30;21.10;;;;;;;;;;5018233;28;20461;-62
2021/08/05 12:09:44;;;;;;;37.90;35.80;;;;;;;;;;5019883;28;21039;-62
2021/08/05 12:12:11;;;;;;;32.07;30.20;;;;;;;;;;5017923;28;20477;-62
2021/08/05 12:14:38;;;;;;;23.40;21.93;;;;;;;;;;5017577;28;20476;-64
2021/08/05 12:17:06;;;;;;;24.37;23.03;;;;;;;;;;5015889;28;20463;-61
2021/08/05 12:19:41;;;;;;;25.20;23.90;;;;;;;;;;5016162;28;20453;-63
2021/08/05 12:22:08;;;;;;;23.83;22.53;;;;;;;;;;5017789;28;21006;-62
2021/08/05 12:24:43;;;;;;;23.17;21.87;;;;;;;;;;5016215;28;20481;-63
2021/08/05 12:27:10;;;;;;;23.07;21.73;;;;;;;;;;5013957;28;20500;-62
2021/08/05 12:29:37;;;;;;;21.80;20.70;;;;;;;;;;5021260;28;20513;-62
2021/08/05 12:32:07;;;;;;;24.00;22.70;;;;;;;;;;5022952;28;20473;-62
2021/08/05 12:34:35;;;;;;;25.13;23.67;;;;;;;;;;5021433;28;20904;-64
2021/08/05 12:37:12;;;;;;;23.33;22.03;;;;;;;;;;5019136;28;20450;-62
2021/08/05 12:39:40;;;;;;;25.43;24.03;;;;;;;;;;5016149;28;20501;-62
2021/08/05 12:42:08;;;;;;;25.33;24.03;;;;;;;;;;5019180;28;20457;-63
2021/08/05 12:44:35;;;;;;;26.07;24.70;;;;;;;;;;5020276;28;20473;-62
2021/08/05 12:47:04;;;;;;;25.17;23.77;;;;;;;;;;5019558;28;20941;-62
2021/08/05 12:49:32;;;;;;;25.37;23.97;;;;;;;;;;5019576;28;20528;-62
2021/08/05 12:52:01;;;;;;;24.10;22.80;;;;;;;;;;5020400;28;20485;-62
2021/08/05 12:54:29;;;;;;;25.23;23.93;;;;;;;;;;5019338;28;20482;-61
2021/08/05 12:56:57;;;;;;;21.70;20.50;;;;;;;;;;5019796;28;20952;-61
2021/08/05 12:59:26;;;;;;;24.47;23.20;;;;;;;;;;5023231;28;20477;-61
2021/08/05 13:02:06;;;;;;;24.43;23.23;;;;;;;;;;5022041;28;20537;-61
2021/08/05 13:04:35;;;;;;;23.93;22.73;;;;;;;;;;5022239;28;20477;-62
2021/08/05 13:07:04;;;;;;;23.63;22.43;;;;;;;;;;5023030;28;20544;-62
2021/08/05 13:09:33;;;;;;;24.63;23.33;;;;;;;;;;5018639;28;20454;-61
2021/08/05 13:12:01;;;;;;;21.87;20.67;;;;;;;;;;5018377;28;20576;-61
2021/08/05 13:14:28;;;;;;;25.57;24.13;;;;;;;;;;5018125;28;20465;-60
2021/08/05 13:17:03;;;;;;;21.80;20.70;;;;;;;;;;5018149;28;20485;-60
2021/08/05 13:19:30;;;;;;;22.07;20.97;;;;;;;;;;5018859;28;20457;-60
2021/08/05 13:21:58;;;;;;;23.43;22.13;;;;;;;;;;5018420;28;20456;-61
2021/08/05 13:24:28;;;;;;;22.97;21.77;;;;;;;;;;5018122;28;20480;-61
2021/08/05 13:26:56;;;;;;;23.23;22.00;;;;;;;;;;5017465;28;20540;-60
2021/08/05 13:29:42;;;;;;;22.30;21.20;;;;;;;;;;5008544;28;20982;-60
2021/08/05 13:32:10;;;;;;;22.10;20.93;;;;;;;;;;5015042;28;20480;-61
2021/08/05 13:34:38;;;;;;;22.50;21.30;;;;;;;;;;5015859;28;20471;-60
2021/08/05 13:37:06;;;;;;;22.23;21.13;;;;;;;;;;5015451;28;20461;-60
2021/08/05 13:39:48;;;;;;;21.70;20.60;;;;;;;;;;5016033;28;20458;-61
2021/08/05 13:42:15;;;;;;;24.03;22.83;;;;;;;;;;5014601;28;20798;-60
2021/08/05 13:44:42;;;;;;;21.93;20.83;;;;;;;;;;5011782;28;21008;-61
2021/08/05 13:47:09;;;;;;;23.00;21.80;;;;;;;;;;5016343;28;20888;-61
2021/08/05 13:49:37;;;;;;;22.77;21.67;;;;;;;;;;5009393;28;20454;-63
2021/08/05 13:52:05;;;;;;;22.40;21.10;;;;;;;;;;5009439;28;20482;-60
2021/08/05 13:54:33;;;;;;;22.53;21.33;;;;;;;;;;5003093;28;20508;-61
2021/08/05 13:57:01;;;;;;;22.67;21.47;;;;;;;;;;5016014;28;20471;-61
2021/08/05 13:59:28;;;;;;;22.10;21.00;;;;;;;;;;5017468;28;20460;-61
2021/08/05 14:01:55;;;;;;;22.03;20.93;;;;;;;;;;5017436;28;20459;-60
2021/08/05 14:04:23;;;;;;;21.63;20.53;;;;;;;;;;5040009;23;20498;-66
2021/08/05 14:06:50;;;;;;;22.10;21.00;;;;;;;;;;5026606;28;20464;-67
2021/08/05 14:09:17;;;;;;;23.33;22.13;;;;;;;;;;5030425;28;20453;-66
2021/08/05 14:11:44;;;;;;;22.60;21.40;;;;;;;;;;5029777;28;20866;-67
2021/08/05 14:14:12;;;;;;;21.30;20.20;;;;;;;;;;5036806;28;20472;-66
2021/08/05 14:16:44;;;;;;;21.17;20.17;;;;;;;;;;5038528;28;20460;-66
2021/08/05 14:19:11;;;;;;;21.27;20.17;;;;;;;;;;5051244;28;20864;-66
2021/08/05 14:21:39;;;;;;;25.27;23.97;;;;;;;;;;5053660;28;20451;-66
2021/08/05 14:24:06;;;;;;;25.30;24.00;;;;;;;;;;5052947;28;20532;-66